KEKX

Addington Field Airport

Elizabethtown, Kentucky, USA

KEKX 110855Z AUTO 00000KT 10SM CLR M04/M06 A3012 RMK AO2 T10401059

Observed Flight Rules
Dec-11 @ 08:55 UTC (16 minutes ago) Visual Flight Rules
Wind Visibility Clouds
Calm 10 miles
  • Clear skies
Temperatures Readings
Current -4°C / 25°F
Dewpoint -6°C / 21°F
Humidity 86%
Altimeter 30.12" Hg
Pressure 1020 hPa
Observed Flight Rules
Dec-11 @ 08:55 UTC
(16 minutes ago)
VFR
Wind Visibility
Calm 10 miles
Clouds
  • Clear skies
Temperature Dewpoint
-4°C / 25°F -6°C / 21°F
Humidity Altimeter Pressure
86% 30.12" Hg 1020 hPa